Time,TemperatureF,DewpointF,PressureIn,WindDirection,WindDirectionDegrees,WindSpeedMPH,WindSpeedGustMPH,Humidity,HourlyPrecipIn,Conditions,Clouds,dailyrainin,SoftwareType,DateUTC
2013-08-09 00:11:00,57.7,55.7,29.83,East,90,2.7,-999.0,93,-99.99,,,0.00,Acu-Link.com,2013-08-09 04:11:00,
2013-08-09 00:26:00,57.6,55.6,29.82,East,90,2.7,-999.0,93,-99.99,,,0.00,Acu-Link.com,2013-08-09 04:26:00,
2013-08-09 00:41:00,57.6,55.6,29.82,SSW,202,2.7,-999.0,93,-99.99,,,0.00,Acu-Link.com,2013-08-09 04:41:00,
2013-08-09 00:56:00,57.6,55.6,29.82,SSW,202,4.2,-999.0,93,-99.99,,,0.00,Acu-Link.com,2013-08-09 04:56:00,
2013-08-09 01:12:00,57.2,55.2,29.81,SW,225,2.2,-999.0,93,-99.99,,,0.00,Acu-Link.com,2013-08-09 05:12:00,
2013-08-09 01:27:00,57.2,55.2,29.81,South,180,4.2,-999.0,93,-99.99,,,0.00,Acu-Link.com,2013-08-09 05:27:00,
2013-08-09 01:42:00,57.2,55.2,29.81,SW,225,1.7,-999.0,93,-99.99,,,0.00,Acu-Link.com,2013-08-09 05:42:00,
2013-08-09 01:57:00,57.0,55.0,29.81,SSE,157,2.7,-999.0,93,-99.99,,,0.00,Acu-Link.com,2013-08-09 05:57:00,
2013-08-09 02:13:00,57.4,55.4,29.81,SSW,202,3.2,-999.0,93,-99.99,,,0.00,Acu-Link.com,2013-08-09 06:13:00,
2013-08-09 02:28:00,57.2,55.2,29.80,SSW,202,2.7,-999.0,93,-99.99,,,0.00,Acu-Link.com,2013-08-09 06:28:00,
2013-08-09 02:43:00,57.0,55.3,29.80,SSW,202,3.2,-999.0,94,-99.99,,,0.00,Acu-Link.com,2013-08-09 06:43:00,
2013-08-09 02:58:00,57.6,55.9,29.81,SSW,202,2.7,-999.0,94,-99.99,,,0.00,Acu-Link.com,2013-08-09 06:58:00,
2013-08-09 03:14:00,57.9,55.9,29.81,South,180,3.2,-999.0,93,-99.99,,,0.00,Acu-Link.com,2013-08-09 07:14:00,
2013-08-09 03:29:00,58.5,55.9,29.80,SSW,202,2.2,-999.0,91,-99.99,,,0.00,Acu-Link.com,2013-08-09 07:29:00,
2013-08-09 03:44:00,58.8,56.2,29.79,South,180,4.2,-999.0,91,-99.99,,,0.00,Acu-Link.com,2013-08-09 07:44:00,
2013-08-09 04:00:00,59.0,56.1,29.79,South,180,3.2,-999.0,90,-99.99,,,0.00,Acu-Link.com,2013-08-09 08:00:00,
2013-08-09 04:15:00,59.0,56.4,29.79,SSW,202,3.7,-999.0,91,-99.99,,,0.00,Acu-Link.com,2013-08-09 08:15:00,
2013-08-09 04:30:00,59.0,56.4,29.79,South,180,3.7,-999.0,91,-99.99,,,0.00,Acu-Link.com,2013-08-09 08:30:00,
2013-08-09 04:46:00,58.8,56.2,29.79,South,180,2.7,-999.0,91,-99.99,,,0.00,Acu-Link.com,2013-08-09 08:46:00,
2013-08-09 05:01:00,58.6,56.0,29.79,South,180,2.7,-999.0,91,-99.99,,,0.00,Acu-Link.com,2013-08-09 09:01:00,
2013-08-09 05:16:00,58.5,55.9,29.79,South,180,1.7,-999.0,91,-99.99,,,0.00,Acu-Link.com,2013-08-09 09:16:00,
2013-08-09 05:31:00,58.5,55.9,29.79,South,180,2.2,-999.0,91,-99.99,,,0.00,Acu-Link.com,2013-08-09 09:31:00,
2013-08-09 05:46:00,58.3,55.7,29.79,SSW,202,2.7,-999.0,91,-99.99,,,0.00,Acu-Link.com,2013-08-09 09:46:00,
2013-08-09 06:01:00,58.1,55.2,29.79,SSE,157,3.2,-999.0,90,-99.99,,,0.00,Acu-Link.com,2013-08-09 10:01:00,
2013-08-09 06:17:00,58.1,55.2,29.79,SSW,202,3.7,-999.0,90,-99.99,,,0.00,Acu-Link.com,2013-08-09 10:17:00,
2013-08-09 06:32:00,57.7,54.8,29.78,SW,225,2.7,-999.0,90,-99.99,,,0.00,Acu-Link.com,2013-08-09 10:32:00,
2013-08-09 06:47:00,58.3,54.8,29.78,SSE,157,2.2,-999.0,88,-99.99,,,0.00,Acu-Link.com,2013-08-09 10:47:00,
2013-08-09 07:03:00,57.7,54.5,29.78,SSE,157,1.7,-999.0,89,-99.99,,,0.00,Acu-Link.com,2013-08-09 11:03:00,
2013-08-09 07:18:00,58.8,54.9,29.79,SE,135,4.2,-999.0,87,-99.99,,,0.00,Acu-Link.com,2013-08-09 11:18:00,
2013-08-09 07:33:00,59.2,55.0,29.79,West,270,2.2,-999.0,86,-99.99,,,0.00,Acu-Link.com,2013-08-09 11:33:00,
2013-08-09 07:49:00,59.2,55.3,29.79,SSW,202,2.2,-999.0,87,-99.99,,,0.00,Acu-Link.com,2013-08-09 11:49:00,
2013-08-09 08:04:00,59.2,55.6,29.79,SSE,157,1.1,-999.0,88,-99.99,,,0.00,Acu-Link.com,2013-08-09 12:04:00,
2013-08-09 08:19:00,61.2,56.7,29.79,SSE,157,0.0,-999.0,85,-99.99,,,0.00,Acu-Link.com,2013-08-09 12:19:00,
2013-08-09 08:35:00,61.7,56.5,29.79,SSE,157,0.0,-999.0,83,-99.99,,,0.00,Acu-Link.com,2013-08-09 12:35:00,
2013-08-09 08:50:00,63.0,57.1,29.78,SSE,157,1.7,-999.0,81,-99.99,,,0.00,Acu-Link.com,2013-08-09 12:50:00,
2013-08-09 09:05:00,63.1,56.5,29.79,West,270,2.7,-999.0,79,-99.99,,,0.00,Acu-Link.com,2013-08-09 13:05:00,
2013-08-09 09:20:00,62.2,55.6,29.79,WNW,292,0.0,-999.0,79,-99.99,,,0.00,Acu-Link.com,2013-08-09 13:20:00,
2013-08-09 09:36:00,65.5,56.2,29.79,West,270,4.2,-999.0,72,-99.99,,,0.00,Acu-Link.com,2013-08-09 13:36:00,
2013-08-09 09:51:00,66.7,56.2,29.78,NW,315,6.8,-999.0,69,-99.99,,,0.00,Acu-Link.com,2013-08-09 13:51:00,
2013-08-09 10:06:00,66.7,55.8,29.78,WNW,292,7.3,-999.0,68,-99.99,,,0.00,Acu-Link.com,2013-08-09 14:06:00,
2013-08-09 10:21:00,67.3,55.1,29.78,WNW,292,6.8,-999.0,65,-99.99,,,0.00,Acu-Link.com,2013-08-09 14:21:00,
2013-08-09 10:36:00,68.2,56.4,29.77,NW,315,6.8,-999.0,66,-99.99,,,0.00,Acu-Link.com,2013-08-09 14:36:00,
2013-08-09 10:52:00,68.7,55.1,29.77,West,270,5.3,-999.0,62,-99.99,,,0.00,Acu-Link.com,2013-08-09 14:52:00,
2013-08-09 11:07:00,70.5,55.0,29.77,West,270,4.7,-999.0,58,-99.99,,,0.00,Acu-Link.com,2013-08-09 15:07:00,
2013-08-09 11:22:00,71.1,56.0,29.76,West,270,4.2,-999.0,59,-99.99,,,0.00,Acu-Link.com,2013-08-09 15:22:00,
2013-08-09 11:37:00,68.2,54.7,29.77,West,270,9.4,-999.0,62,-99.99,,,0.00,Acu-Link.com,2013-08-09 15:37:00,
2013-08-09 11:52:00,70.5,54.0,29.77,WNW,292,14.5,-999.0,56,-99.99,,,0.00,Acu-Link.com,2013-08-09 15:52:00,
2013-08-09 12:07:00,71.6,52.5,29.77,West,270,3.7,-999.0,51,-99.99,,,0.00,Acu-Link.com,2013-08-09 16:07:00,
2013-08-09 12:23:00,73.8,51.7,29.77,NNW,337,7.3,-999.0,46,-99.99,,,0.00,Acu-Link.com,2013-08-09 16:23:00,
2013-08-09 12:38:00,74.1,50.8,29.77,West,270,11.4,-999.0,44,-99.99,,,0.00,Acu-Link.com,2013-08-09 16:38:00,
2013-08-09 12:53:00,73.8,50.5,29.77,WNW,292,6.8,-999.0,44,-99.99,,,0.00,Acu-Link.com,2013-08-09 16:53:00,
2013-08-09 13:08:00,73.9,50.6,29.77,West,270,15.5,-999.0,44,-99.99,,,0.00,Acu-Link.com,2013-08-09 17:08:00,
2013-08-09 13:23:00,71.2,48.8,29.78,West,270,8.3,-999.0,45,-99.99,,,0.00,Acu-Link.com,2013-08-09 17:23:00,
2013-08-09 13:38:00,72.9,49.1,29.78,SSW,202,10.4,-999.0,43,-99.99,,,0.00,Acu-Link.com,2013-08-09 17:38:00,
2013-08-09 13:53:00,74.1,50.8,29.78,SSW,202,5.3,-999.0,44,-99.99,,,0.01,Acu-Link.com,2013-08-09 17:53:00,
2013-08-09 14:09:00,72.0,49.5,29.78,South,180,9.4,-999.0,45,-99.99,,,0.01,Acu-Link.com,2013-08-09 18:09:00,
2013-08-09 14:24:00,73.0,50.4,29.78,SW,225,10.4,-999.0,45,-99.99,,,0.01,Acu-Link.com,2013-08-09 18:24:00,
2013-08-09 14:39:00,71.6,49.7,29.79,ESE,112,9.9,-999.0,46,-99.99,,,0.01,Acu-Link.com,2013-08-09 18:39:00,
2013-08-09 14:54:00,72.5,49.3,29.79,SE,135,13.5,-999.0,44,-99.99,,,0.01,Acu-Link.com,2013-08-09 18:54:00,
2013-08-09 15:09:00,71.6,50.3,29.79,SSW,202,11.9,-999.0,47,-99.99,,,0.01,Acu-Link.com,2013-08-09 19:09:00,
2013-08-09 15:24:00,72.3,53.1,29.79,SSW,202,13.5,-999.0,51,-99.99,,,0.01,Acu-Link.com,2013-08-09 19:24:00,
2013-08-09 15:39:00,70.7,53.2,29.80,SSW,202,16.1,-999.0,54,-99.99,,,0.01,Acu-Link.com,2013-08-09 19:39:00,
2013-08-09 15:55:00,70.5,51.5,29.80,ESE,112,8.9,-999.0,51,-99.99,,,0.01,Acu-Link.com,2013-08-09 19:55:00,
2013-08-09 16:10:00,65.7,54.8,29.81,SSW,202,10.9,-999.0,68,-99.99,,,0.01,Acu-Link.com,2013-08-09 20:10:00,
2013-08-09 16:25:00,66.9,53.0,29.82,SSW,202,16.6,-999.0,61,-99.99,,,0.01,Acu-Link.com,2013-08-09 20:25:00,
2013-08-09 16:40:00,66.9,53.9,29.82,SSW,202,13.5,-999.0,63,-99.99,,,0.01,Acu-Link.com,2013-08-09 20:40:00,
2013-08-09 16:55:00,67.3,53.8,29.83,SSW,202,17.1,-999.0,62,-99.99,,,0.01,Acu-Link.com,2013-08-09 20:55:00,
2013-08-09 17:10:00,67.5,53.6,29.83,SSW,202,12.5,-999.0,61,-99.99,,,0.01,Acu-Link.com,2013-08-09 21:10:00,
2013-08-09 17:25:00,64.4,55.2,29.82,SW,225,13.5,-999.0,72,-99.99,,,0.01,Acu-Link.com,2013-08-09 21:25:00,
2013-08-09 17:40:00,64.0,55.2,29.83,SW,225,11.9,-999.0,73,-99.99,,,0.01,Acu-Link.com,2013-08-09 21:40:00,
2013-08-09 17:55:00,63.5,55.1,29.83,SSW,202,16.6,-999.0,74,-99.99,,,0.01,Acu-Link.com,2013-08-09 21:55:00,
2013-08-09 18:10:00,63.5,55.1,29.84,SW,225,17.1,-999.0,74,-99.99,,,0.01,Acu-Link.com,2013-08-09 22:10:00,
2013-08-09 18:26:00,63.9,54.7,29.84,SSW,202,15.5,-999.0,72,-99.99,,,0.01,Acu-Link.com,2013-08-09 22:26:00,
2013-08-09 18:41:00,63.3,54.9,29.85,SSW,202,14.0,-999.0,74,-99.99,,,0.01,Acu-Link.com,2013-08-09 22:41:00,
2013-08-09 18:56:00,63.0,54.2,29.85,SSW,202,10.4,-999.0,73,-99.99,,,0.01,Acu-Link.com,2013-08-09 22:56:00,
2013-08-09 19:11:00,62.8,54.0,29.86,SW,225,12.5,-999.0,73,-99.99,,,0.01,Acu-Link.com,2013-08-09 23:11:00,
2013-08-09 19:26:00,61.9,54.2,29.86,SW,225,9.4,-999.0,76,-99.99,,,0.01,Acu-Link.com,2013-08-09 23:26:00,
2013-08-09 19:41:00,61.5,53.5,29.87,SW,225,8.9,-999.0,75,-99.99,,,0.01,Acu-Link.com,2013-08-09 23:41:00,
2013-08-09 19:56:00,61.2,53.2,29.87,SW,225,7.3,-999.0,75,-99.99,,,0.01,Acu-Link.com,2013-08-09 23:56:00,
2013-08-09 20:11:00,60.4,53.9,29.88,West,270,4.7,-999.0,79,-99.99,,,0.01,Acu-Link.com,2013-08-10 00:11:00,
2013-08-09 20:27:00,60.3,53.8,29.88,WSW,247,5.3,-999.0,79,-99.99,,,0.01,Acu-Link.com,2013-08-10 00:27:00,
2013-08-09 20:42:00,59.7,53.5,29.88,West,270,4.7,-999.0,80,-99.99,,,0.01,Acu-Link.com,2013-08-10 00:42:00,
2013-08-09 20:57:00,59.2,52.7,29.89,West,270,3.7,-999.0,79,-99.99,,,0.01,Acu-Link.com,2013-08-10 00:57:00,
2013-08-09 21:12:00,58.1,52.0,29.90,West,270,1.7,-999.0,80,-99.99,,,0.01,Acu-Link.com,2013-08-10 01:12:00,
2013-08-09 21:27:00,56.1,51.7,29.90,West,270,2.2,-999.0,85,-99.99,,,0.01,Acu-Link.com,2013-08-10 01:27:00,
2013-08-09 21:43:00,54.9,51.4,29.90,West,270,0.0,-999.0,88,-99.99,,,0.01,Acu-Link.com,2013-08-10 01:43:00,
2013-08-09 21:58:00,54.0,51.1,29.91,West,270,0.0,-999.0,90,-99.99,,,0.01,Acu-Link.com,2013-08-10 01:58:00,
2013-08-09 22:13:00,53.4,50.8,29.91,West,270,0.0,-999.0,91,-99.99,,,0.01,Acu-Link.com,2013-08-10 02:13:00,
2013-08-09 22:28:00,52.9,50.3,29.91,West,270,0.0,-999.0,91,-99.99,,,0.01,Acu-Link.com,2013-08-10 02:28:00,
2013-08-09 22:44:00,52.7,50.4,29.91,West,270,0.0,-999.0,92,-99.99,,,0.01,Acu-Link.com,2013-08-10 02:44:00,
2013-08-09 22:59:00,52.5,50.2,29.92,West,270,0.0,-999.0,92,-99.99,,,0.01,Acu-Link.com,2013-08-10 02:59:00,
2013-08-09 23:14:00,52.5,50.2,29.91,West,270,0.0,-999.0,92,-99.99,,,0.01,Acu-Link.com,2013-08-10 03:14:00,
2013-08-09 23:30:00,52.7,50.4,29.92,NE,45,0.0,-999.0,92,-99.99,,,0.01,Acu-Link.com,2013-08-10 03:30:00,
2013-08-09 23:45:00,52.3,50.0,29.92,NE,45,3.2,-999.0,92,-99.99,,,0.01,Acu-Link.com,2013-08-10 03:45:00,